Time;durP1;ratioP1;P1;durP2;ratioP2;P2;SDS_P1;SDS_P2;PMS_P1;PMS_P2;Temp;Humidity;BMP_temperature;BMP_pressure;BME280_temperature;BME280_humidity;BME280_pressure;Samples;Min_cycle;Max_cycle;Signal;HPM_P1;HPM_P2
2022/11/01 00:02:02;;;;;;;2.00;1.80;;;16.40;65.20;;;;;;5083564;28;20074;-70
2022/11/01 00:04:28;;;;;;;1.60;1.50;;;16.40;65.30;;;;;;5083494;28;20343;-70
2022/11/01 00:06:54;;;;;;;1.92;1.70;;;16.40;65.30;;;;;;5083441;28;20044;-70
2022/11/01 00:09:20;;;;;;;2.35;1.60;;;16.40;65.20;;;;;;5083440;28;20031;-71
2022/11/01 00:11:46;;;;;;;1.33;1.23;;;16.40;65.20;;;;;;5083460;28;20028;-70
2022/11/01 00:14:14;;;;;;;1.85;1.70;;;16.40;65.20;;;;;;5083357;28;20216;-70
2022/11/01 00:16:40;;;;;;;1.48;1.38;;;16.40;65.20;;;;;;5083411;28;20009;-70
2022/11/01 00:19:06;;;;;;;1.63;1.50;;;16.40;65.20;;;;;;5083394;28;20040;-71
2022/11/01 00:21:32;;;;;;;1.80;1.70;;;16.40;65.20;;;;;;5084185;28;20073;-70
2022/11/01 00:23:57;;;;;;;3.00;1.75;;;16.40;65.20;;;;;;5087299;28;20106;-69
2022/11/01 00:26:26;;;;;;;1.55;1.45;;;16.40;65.30;;;;;;5086224;28;20020;-68
2022/11/01 00:28:52;;;;;;;;;;;16.40;65.30;;;;;;5087788;28;20028;-68
2022/11/01 00:31:19;;;;;;;1.60;1.50;;;16.40;65.30;;;;;;5087338;28;19922;-68
2022/11/01 00:33:45;;;;;;;1.80;1.67;;;16.30;65.20;;;;;;5087221;28;20027;-68
2022/11/01 00:36:11;;;;;;;2.08;1.83;;;16.40;65.30;;;;;;5087215;28;20053;-69
2022/11/01 00:38:37;;;;;;;1.65;1.55;;;16.40;65.30;;;;;;5087187;28;20020;-69
2022/11/01 00:41:04;;;;;;;1.55;1.45;;;16.40;65.20;;;;;;5087165;28;20051;-69
2022/11/01 00:43:34;;;;;;;1.27;1.17;;;16.40;65.20;;;;;;5085930;28;20320;-71
2022/11/01 00:46:00;;;;;;;1.80;1.70;;;16.40;65.20;;;;;;5087070;28;20216;-70
2022/11/01 00:48:26;;;;;;;1.75;1.65;;;16.40;65.30;;;;;;5086966;28;20024;-69
2022/11/01 00:50:53;;;;;;;1.67;1.52;;;16.40;65.20;;;;;;5086919;28;20027;-68
2022/11/01 00:53:19;;;;;;;1.90;1.63;;;16.40;65.20;;;;;;5086795;28;20048;-69
2022/11/01 00:55:45;;;;;;;1.65;1.55;;;16.40;65.30;;;;;;5086811;28;20017;-68
2022/11/01 00:58:11;;;;;;;1.95;1.75;;;16.30;65.20;;;;;;5086721;28;20255;-69
2022/11/01 01:00:36;;;;;;;2.38;2.05;;;16.30;65.20;;;;;;5086687;28;20021;-68
2022/11/01 01:03:05;;;;;;;1.67;1.40;;;16.30;65.30;;;;;;5086686;28;20025;-68
2022/11/01 01:05:33;;;;;;;1.98;1.77;;;16.30;65.20;;;;;;5086657;28;20083;-68
2022/11/01 01:07:59;;;;;;;1.90;1.70;;;16.40;65.30;;;;;;5086622;28;20020;-68
2022/11/01 01:10:25;;;;;;;1.85;1.63;;;16.30;65.20;;;;;;5086576;28;20022;-69
2022/11/01 01:12:51;;;;;;;2.22;1.73;;;16.30;65.30;;;;;;5086462;28;20083;-68
2022/11/01 01:15:17;;;;;;;1.40;1.30;;;16.30;65.30;;;;;;5086506;28;20076;-68
2022/11/01 01:17:43;;;;;;;1.70;1.60;;;16.40;65.30;;;;;;5086440;28;20021;-68
2022/11/01 01:20:09;;;;;;;1.60;1.50;;;16.30;65.20;;;;;;5086397;28;20015;-69
2022/11/01 01:22:35;;;;;;;1.50;1.40;;;16.30;65.20;;;;;;5086199;28;20332;-68
2022/11/01 01:25:01;;;;;;;1.42;1.33;;;16.30;65.20;;;;;;5086304;28;20083;-68
2022/11/01 01:27:27;;;;;;;1.60;1.50;;;16.30;65.20;;;;;;5086263;28;20043;-68
2022/11/01 01:29:52;;;;;;;1.98;1.65;;;16.30;65.30;;;;;;5086189;28;20020;-68
2022/11/01 01:32:21;;;;;;;1.60;1.45;;;16.30;65.20;;;;;;5085548;28;20048;-68
2022/11/01 01:34:47;;;;;;;1.90;1.60;;;16.30;65.20;;;;;;5086151;28;20083;-68
2022/11/01 01:37:14;;;;;;;1.70;1.60;;;16.30;65.30;;;;;;5086117;28;20145;-68
2022/11/01 01:39:39;;;;;;;1.40;1.27;;;16.30;65.20;;;;;;5086071;28;20016;-69
2022/11/01 01:42:31;;;;;;;1.33;1.20;;;16.40;65.30;;;;;;5086004;28;20376;-69
2022/11/01 01:44:57;;;;;;;2.15;1.45;;;16.40;65.30;;;;;;5085926;28;20181;-68
2022/11/01 01:47:32;;;;;;;1.90;1.75;;;16.30;65.20;;;;;;5085907;28;20028;-68
2022/11/01 01:50:15;;;;;;;1.58;1.48;;;16.30;65.20;;;;;;5085851;28;20017;-68
2022/11/01 01:52:49;;;;;;;1.63;1.48;;;16.30;65.20;;;;;;5085778;28;20095;-68
2022/11/01 01:55:18;;;;;;;1.77;1.63;;;16.30;65.20;;;;;;5085791;28;20038;-69
2022/11/01 01:57:44;;;;;;;1.60;1.50;;;16.30;65.20;;;;;;5085685;28;20031;-69
2022/11/01 02:00:11;;;;;;;1.58;1.48;;;16.30;65.20;;;;;;5085596;28;20023;-68
2022/11/01 02:02:39;;;;;;;1.25;1.15;;;16.30;65.20;;;;;;5085624;28;20028;-68
2022/11/01 02:05:31;;;;;;;1.92;1.30;;;16.30;65.20;;;;;;5085570;28;20016;-68
2022/11/01 02:07:58;;;;;;;1.48;1.33;;;16.30;65.20;;;;;;5085575;28;20024;-68
2022/11/01 02:10:24;;;;;;;2.03;1.48;;;16.30;65.20;;;;;;5085481;28;20028;-69
2022/11/01 02:12:50;;;;;;;1.52;1.42;;;16.30;65.20;;;;;;5085380;28;20371;-70
2022/11/01 02:15:17;;;;;;;1.67;1.58;;;16.30;65.20;;;;;;5085345;28;20031;-69
2022/11/01 02:17:49;;;;;;;1.67;1.58;;;16.30;65.20;;;;;;5085345;28;20058;-68
2022/11/01 02:20:36;;;;;;;1.38;1.27;;;16.30;65.20;;;;;;5085264;28;20016;-68
2022/11/01 02:23:26;;;;;;;1.77;1.67;;;16.30;65.20;;;;;;5085069;28;20044;-69
2022/11/01 02:26:13;;;;;;;1.85;1.45;;;16.30;65.20;;;;;;5085101;28;20021;-68
2022/11/01 02:28:52;;;;;;;1.60;1.50;;;16.30;65.20;;;;;;5085106;28;20016;-68
2022/11/01 02:31:24;;;;;;;2.13;1.60;;;16.30;65.20;;;;;;5085008;28;20045;-68
2022/11/01 02:34:08;;;;;;;1.65;1.50;;;16.30;65.30;;;;;;5084943;28;20016;-68
2022/11/01 02:36:51;;;;;;;1.20;1.10;;;16.30;65.30;;;;;;5084906;28;20016;-69
2022/11/01 02:39:26;;;;;;;1.73;1.52;;;16.30;65.20;;;;;;5084886;28;20012;-68
2022/11/01 02:42:04;;;;;;;1.98;1.33;;;16.30;65.20;;;;;;5084869;28;20016;-69
2022/11/01 02:44:36;;;;;;;1.77;1.60;;;16.30;65.20;;;;;;5083887;28;20194;-68
2022/11/01 02:47:04;;;;;;;3.00;2.13;;;16.30;65.20;;;;;;5084749;28;20020;-68
2022/11/01 02:49:42;;;;;;;1.73;1.40;;;16.30;65.20;;;;;;5084711;28;20040;-68
2022/11/01 02:52:12;;;;;;;1.90;1.60;;;16.30;65.30;;;;;;5084678;28;20035;-68
2022/11/01 02:54:39;;;;;;;1.17;1.05;;;16.30;65.20;;;;;;5084572;28;20228;-68
2022/11/01 02:57:35;;;;;;;1.48;1.38;;;16.30;65.30;;;;;;5084756;28;20054;-68
2022/11/01 03:00:24;;;;;;;2.30;1.52;;;16.30;65.30;;;;;;5084487;28;20125;-68
2022/11/01 03:03:08;;;;;;;1.65;1.55;;;16.30;65.30;;;;;;5084471;28;20070;-68
2022/11/01 03:05:46;;;;;;;2.78;2.00;;;16.30;65.20;;;;;;5084357;28;20027;-68
2022/11/01 03:08:17;;;;;;;1.80;1.63;;;16.30;65.20;;;;;;5084328;28;20231;-68
2022/11/01 03:11:08;;;;;;;1.55;1.45;;;16.30;65.20;;;;;;5084319;28;20085;-70
2022/11/01 03:13:45;;;;;;;2.13;1.83;;;16.30;65.30;;;;;;5084157;28;20323;-68
2022/11/01 03:16:38;;;;;;;1.60;1.30;;;16.30;65.20;;;;;;5084207;28;20013;-68
2022/11/01 03:19:27;;;;;;;2.35;1.80;;;16.30;65.20;;;;;;5084100;28;20032;-68
2022/11/01 03:22:19;;;;;;;1.40;1.30;;;16.30;65.30;;;;;;5083907;28;20020;-68
2022/11/01 03:24:51;;;;;;;1.77;1.35;;;16.30;65.30;;;;;;5084071;28;20042;-68
2022/11/01 03:27:37;;;;;;;1.70;1.60;;;16.30;65.30;;;;;;5084003;28;20017;-68
2022/11/01 03:30:06;;;;;;;1.30;1.20;;;16.30;65.20;;;;;;5084003;28;20032;-68
2022/11/01 03:32:42;;;;;;;1.40;1.30;;;16.30;65.20;;;;;;5083781;28;20312;-68
2022/11/01 03:35:14;;;;;;;1.52;1.35;;;16.30;65.20;;;;;;5083893;28;20012;-68
2022/11/01 03:37:43;;;;;;;1.60;1.50;;;16.30;65.20;;;;;;5083870;28;20079;-69
2022/11/01 03:40:11;;;;;;;1.80;1.48;;;16.30;65.20;;;;;;5083822;28;20083;-68
2022/11/01 03:42:39;;;;;;;2.03;1.58;;;16.30;65.30;;;;;;5083821;28;20066;-70
2022/11/01 03:45:09;;;;;;;1.65;1.40;;;16.30;65.30;;;;;;5083763;28;20024;-68
2022/11/01 03:47:36;;;;;;;2.28;1.50;;;16.30;65.30;;;;;;5083753;28;20212;-68
2022/11/01 03:50:20;;;;;;;1.48;1.38;;;16.20;65.20;;;;;;5083676;28;20046;-68
2022/11/01 03:52:46;;;;;;;1.45;1.35;;;16.30;65.30;;;;;;5083542;28;20273;-68
2022/11/01 03:55:16;;;;;;;1.77;1.38;;;16.30;65.30;;;;;;5083402;28;20024;-68
2022/11/01 03:57:56;;;;;;;1.65;1.50;;;16.30;65.30;;;;;;5083620;28;20292;-68
2022/11/01 04:00:27;;;;;;;1.55;1.45;;;16.30;65.20;;;;;;5083576;28;20200;-68
2022/11/01 04:02:54;;;;;;;2.08;1.38;;;16.30;65.30;;;;;;5083538;28;20025;-68
2022/11/01 04:05:22;;;;;;;1.90;1.50;;;16.30;65.30;;;;;;5083513;28;20296;-69
2022/11/01 04:07:48;;;;;;;1.65;1.55;;;16.30;65.30;;;;;;5083504;28;20024;-69
2022/11/01 04:10:14;;;;;;;1.42;1.33;;;16.20;65.20;;;;;;5083480;28;20039;-69
2022/11/01 04:12:43;;;;;;;1.60;1.50;;;16.20;65.20;;;;;;5083347;28;20020;-68
2022/11/01 04:20:57;;;;;;;1.25;1.15;;;16.30;65.30;;;;;;5083412;28;20020;-68
2022/11/01 04:23:23;;;;;;;1.65;1.35;;;16.30;65.20;;;;;;5083154;28;20113;-68
2022/11/01 04:25:49;;;;;;;1.45;1.35;;;16.30;65.30;;;;;;5083294;28;20020;-68
2022/11/01 04:28:15;;;;;;;1.50;1.30;;;16.30;65.20;;;;;;5083299;28;20129;-68
2022/11/01 04:30:41;;;;;;;1.45;1.35;;;16.20;65.20;;;;;;5083246;28;20343;-68
2022/11/01 04:33:07;;;;;;;2.25;1.85;;;16.20;65.20;;;;;;5083177;28;20089;-68
2022/11/01 04:35:36;;;;;;;1.48;1.33;;;16.20;65.30;;;;;;5083204;28;20088;-69
2022/11/01 04:38:03;;;;;;;1.00;1.00;;;16.20;65.30;;;;;;5083217;28;20021;-69
2022/11/01 04:40:30;;;;;;;1.65;1.55;;;16.20;65.30;;;;;;5083210;28;20020;-70
2022/11/01 04:42:57;;;;;;;1.50;1.38;;;16.20;65.20;;;;;;5083169;28;20021;-69
2022/11/01 04:45:23;;;;;;;1.48;1.38;;;16.30;65.30;;;;;;5083108;28;20028;-69
2022/11/01 04:48:12;;;;;;;1.42;1.33;;;16.20;65.20;;;;;;5083118;28;20316;-70
2022/11/01 04:50:39;;;;;;;1.60;1.50;;;16.30;65.20;;;;;;5083113;28;20216;-69
2022/11/01 04:53:06;;;;;;;1.42;1.33;;;16.20;65.20;;;;;;5082997;28;20023;-68
2022/11/01 04:55:32;;;;;;;1.30;1.20;;;16.20;65.20;;;;;;5081912;28;20246;-68
2022/11/01 04:57:58;;;;;;;2.63;1.40;;;16.20;65.30;;;;;;5083005;28;20043;-69
2022/11/01 05:00:24;;;;;;;1.50;1.40;;;16.20;65.20;;;;;;5082983;28;20313;-68
2022/11/01 05:02:50;;;;;;;2.17;1.70;;;16.20;65.20;;;;;;5082940;28;20061;-68
2022/11/01 05:05:17;;;;;;;1.48;1.38;;;16.20;65.20;;;;;;5082948;28;20293;-68
2022/11/01 05:07:43;;;;;;;1.77;1.25;;;16.20;65.30;;;;;;5083983;28;20117;-68
2022/11/01 05:10:10;;;;;;;1.92;1.70;;;16.20;65.20;;;;;;5086600;28;20032;-70
2022/11/01 05:12:36;;;;;;;1.55;1.45;;;16.20;65.20;;;;;;5086468;28;20027;-69
2022/11/01 05:15:02;;;;;;;1.38;1.25;;;16.20;65.30;;;;;;5086496;28;20024;-69
2022/11/01 05:17:28;;;;;;;1.65;1.52;;;16.20;65.30;;;;;;5086495;28;20019;-68
2022/11/01 05:19:54;;;;;;;3.28;1.63;;;16.20;65.30;;;;;;5086395;28;20208;-69
2022/11/01 05:22:20;;;;;;;1.48;1.38;;;16.20;65.20;;;;;;5086235;28;20044;-68
2022/11/01 05:24:46;;;;;;;1.60;1.35;;;16.20;65.20;;;;;;5086400;28;20024;-70
2022/11/01 05:27:11;;;;;;;1.52;1.27;;;16.20;65.20;;;;;;5086264;28;20012;-68
2022/11/01 05:29:37;;;;;;;2.22;1.55;;;16.20;65.20;;;;;;5086243;28;20325;-68
2022/11/01 05:32:03;;;;;;;1.58;1.27;;;16.20;65.20;;;;;;5086217;28;20330;-68
2022/11/01 05:34:29;;;;;;;2.08;1.70;;;16.30;65.20;;;;;;5086086;28;20339;-68
2022/11/01 05:36:54;;;;;;;1.70;1.30;;;16.20;65.30;;;;;;5086073;28;20012;-68
2022/11/01 05:39:20;;;;;;;2.08;1.63;;;16.20;65.30;;;;;;5086064;28;20024;-70
2022/11/01 05:41:46;;;;;;;1.45;1.25;;;16.20;65.30;;;;;;5086009;28;20366;-68
2022/11/01 05:44:11;;;;;;;1.80;1.40;;;16.20;65.30;;;;;;5085990;28;20088;-69
2022/11/01 05:46:37;;;;;;;1.35;1.25;;;16.20;65.20;;;;;;5085899;28;20078;-70
2022/11/01 05:49:03;;;;;;;1.42;1.30;;;16.20;65.30;;;;;;5085956;28;20027;-69
2022/11/01 05:51:29;;;;;;;1.60;1.30;;;16.20;65.30;;;;;;5085854;28;20079;-68
2022/11/01 05:53:54;;;;;;;1.50;1.40;;;16.20;65.20;;;;;;5085750;28;20024;-69
2022/11/01 05:56:20;;;;;;;1.77;1.42;;;16.20;65.20;;;;;;5085756;28;20012;-68
2022/11/01 05:58:46;;;;;;;1.48;1.38;;;16.20;65.20;;;;;;5085720;28;20040;-69
2022/11/01 06:01:12;;;;;;;1.52;1.42;;;16.20;65.20;;;;;;5085625;28;20061;-68
2022/11/01 06:03:38;;;;;;;2.03;1.60;;;16.20;65.20;;;;;;5085615;28;20016;-68
2022/11/01 06:06:04;;;;;;;2.25;1.60;;;16.20;65.30;;;;;;5085546;28;20062;-69
2022/11/01 06:08:30;;;;;;;1.73;1.60;;;16.20;65.30;;;;;;5085497;28;20029;-67
2022/11/01 06:11:03;;;;;;;1.90;1.60;;;16.20;65.30;;;;;;5085463;28;20020;-68
2022/11/01 06:13:30;;;;;;;1.40;1.30;;;16.20;65.20;;;;;;5084320;28;20023;-68
2022/11/01 06:16:04;;;;;;;1.35;1.23;;;16.20;65.20;;;;;;5085625;28;20013;-68
2022/11/01 06:18:30;;;;;;;1.38;1.27;;;16.20;65.20;;;;;;5085277;28;20088;-70
2022/11/01 06:20:58;;;;;;;1.42;1.33;;;16.20;65.20;;;;;;5085295;28;20013;-68
2022/11/01 06:23:23;;;;;;;1.35;1.20;;;16.30;65.20;;;;;;5085127;28;20059;-71
2022/11/01 06:25:49;;;;;;;1.40;1.30;;;16.20;65.20;;;;;;5085182;28;20020;-70
2022/11/01 06:28:15;;;;;;;2.00;1.85;;;16.20;65.20;;;;;;5085107;28;20079;-68
2022/11/01 06:30:42;;;;;;;1.77;1.40;;;16.20;65.20;;;;;;5085099;28;20020;-70
2022/11/01 06:33:09;;;;;;;1.60;1.50;;;16.20;65.30;;;;;;5084959;28;20017;-70
2022/11/01 06:35:35;;;;;;;1.60;1.50;;;16.20;65.20;;;;;;5084989;28;20016;-70
2022/11/01 06:38:08;;;;;;;2.13;1.58;;;16.20;65.20;;;;;;5084896;28;20023;-70
2022/11/01 06:40:37;;;;;;;2.15;1.40;;;16.20;65.20;;;;;;5083710;28;20016;-67
2022/11/01 06:43:04;;;;;;;1.42;1.33;;;16.20;65.20;;;;;;5084877;28;20079;-70
2022/11/01 06:45:31;;;;;;;1.48;1.20;;;16.20;65.20;;;;;;5084842;28;20023;-70
2022/11/01 06:47:57;;;;;;;1.45;1.35;;;16.20;65.20;;;;;;5084757;28;20051;-70
2022/11/01 06:50:23;;;;;;;1.40;1.30;;;16.20;65.20;;;;;;5084703;28;20027;-68
2022/11/01 06:52:49;;;;;;;2.22;1.33;;;16.20;65.10;;;;;;5084602;28;20027;-71
2022/11/01 06:55:15;;;;;;;1.77;1.63;;;16.20;65.20;;;;;;5084611;28;20204;-70
2022/11/01 06:57:41;;;;;;;1.63;1.50;;;16.20;65.20;;;;;;5084533;28;20016;-70
2022/11/01 07:00:08;;;;;;;1.50;1.25;;;16.20;65.80;;;;;;5084532;28;20062;-70
2022/11/01 07:02:34;;;;;;;1.50;1.40;;;16.20;65.20;;;;;;5084416;28;20058;-70
2022/11/01 07:05:00;;;;;;;1.33;1.23;;;16.20;65.20;;;;;;5084416;28;20016;-70
2022/11/01 07:07:26;;;;;;;1.30;1.20;;;16.20;65.20;;;;;;5084380;28;20020;-70
2022/11/01 07:09:52;;;;;;;1.42;1.27;;;16.20;65.10;;;;;;5084314;28;20012;-70
2022/11/01 07:12:18;;;;;;;1.25;1.15;;;16.20;65.20;;;;;;5084286;28;20189;-71
2022/11/01 07:14:44;;;;;;;1.65;1.50;;;16.20;65.10;;;;;;5084124;28;20024;-70
2022/11/01 07:17:09;;;;;;;1.30;1.20;;;16.20;65.10;;;;;;5084148;28;20043;-70
2022/11/01 07:19:35;;;;;;;1.83;1.33;;;16.20;65.20;;;;;;5082616;28;20024;-70
2022/11/01 07:22:01;;;;;;;1.50;1.40;;;16.20;65.20;;;;;;5083885;28;20048;-71
2022/11/01 07:24:27;;;;;;;1.98;1.50;;;16.20;65.10;;;;;;5084065;28;20079;-70
2022/11/01 07:26:53;;;;;;;3.50;1.70;;;16.20;65.10;;;;;;5084015;28;20016;-70
2022/11/01 07:29:20;;;;;;;1.60;1.50;;;16.20;65.10;;;;;;5083897;28;20074;-70
2022/11/01 07:31:46;;;;;;;1.30;1.20;;;16.20;65.10;;;;;;5083500;28;20016;-70
2022/11/01 07:34:12;;;;;;;1.65;1.55;;;16.20;65.10;;;;;;5083821;28;20125;-71
2022/11/01 07:36:38;;;;;;;1.40;1.20;;;16.20;65.10;;;;;;5083853;28;20372;-70
2022/11/01 07:39:04;;;;;;;1.52;1.42;;;16.20;65.20;;;;;;5083851;28;20332;-70
2022/11/01 07:41:30;;;;;;;1.42;1.30;;;16.20;65.20;;;;;;5083804;28;20037;-71
2022/11/01 07:43:56;;;;;;;1.77;1.40;;;16.20;65.10;;;;;;5083799;28;20338;-70
2022/11/01 07:46:22;;;;;;;1.33;1.23;;;16.20;65.10;;;;;;5083746;28;20020;-70
2022/11/01 07:48:49;;;;;;;1.20;1.10;;;16.20;65.10;;;;;;5083716;28;20216;-70
2022/11/01 07:51:16;;;;;;;1.80;1.50;;;16.20;65.10;;;;;;5083707;28;20016;-70
2022/11/01 07:53:41;;;;;;;1.33;1.23;;;16.20;65.10;;;;;;5082439;28;20107;-71
2022/11/01 07:56:08;;;;;;;1.85;1.60;;;16.20;65.10;;;;;;5083600;28;20304;-71
2022/11/01 07:58:34;;;;;;;1.55;1.20;;;16.20;65.10;;;;;;5083619;28;20027;-70
2022/11/01 08:01:00;;;;;;;1.48;1.38;;;16.20;65.10;;;;;;5083586;28;20017;-70
2022/11/01 08:03:26;;;;;;;1.80;1.65;;;16.20;65.00;;;;;;5082374;28;20066;-69
2022/11/01 08:05:52;;;;;;;2.05;1.63;;;16.30;65.10;;;;;;5083487;28;20021;-71
2022/11/01 08:08:18;;;;;;;1.35;1.25;;;16.20;65.00;;;;;;5083482;28;20084;-70
2022/11/01 08:10:44;;;;;;;1.77;1.60;;;16.30;65.10;;;;;;5083465;28;20378;-71
2022/11/01 08:13:22;;;;;;;1.73;1.55;;;16.30;65.10;;;;;;5082202;28;20219;-70
2022/11/01 08:15:51;;;;;;;1.42;1.33;;;16.30;65.10;;;;;;5083455;28;20203;-71
2022/11/01 08:18:21;;;;;;;1.80;1.55;;;16.30;65.10;;;;;;5083423;28;20017;-70
2022/11/01 08:20:48;;;;;;;1.80;1.30;;;16.30;65.10;;;;;;5083376;28;20012;-70
2022/11/01 08:23:15;;;;;;;1.73;1.50;;;16.30;65.10;;;;;;5083202;28;20056;-70
2022/11/01 08:25:41;;;;;;;2.30;1.60;;;16.20;65.10;;;;;;5083325;28;20028;-70
2022/11/01 08:28:12;;;;;;;1.73;1.60;;;16.30;65.20;;;;;;5083290;28;20197;-70
2022/11/01 08:30:40;;;;;;;1.40;1.30;;;16.30;65.10;;;;;;5083327;28;20020;-71
2022/11/01 08:33:06;;;;;;;1.58;1.48;;;16.30;65.00;;;;;;5083177;28;20034;-71
2022/11/01 08:35:32;;;;;;;1.65;1.55;;;16.30;65.00;;;;;;5083297;28;20304;-70
2022/11/01 08:37:59;;;;;;;1.48;1.38;;;16.30;65.00;;;;;;5083251;28;20075;-70
2022/11/01 08:40:27;;;;;;;1.60;1.40;;;16.30;64.90;;;;;;5083211;28;20319;-70
2022/11/01 08:42:53;;;;;;;1.52;1.30;;;16.30;65.00;;;;;;5084609;28;20023;-70
2022/11/01 08:45:19;;;;;;;1.77;1.40;;;16.30;65.00;;;;;;5087142;28;20025;-70
2022/11/01 08:47:45;;;;;;;1.33;1.23;;;16.30;65.00;;;;;;5087120;28;20020;-70
2022/11/01 08:50:14;;;;;;;1.98;1.77;;;16.30;65.00;;;;;;5085848;28;20027;-71
2022/11/01 08:52:40;;;;;;;1.33;1.20;;;16.30;64.90;;;;;;5086905;28;20016;-70
2022/11/01 08:55:08;;;;;;;1.50;1.40;;;16.30;64.90;;;;;;5086919;28;20028;-71
2022/11/01 08:57:34;;;;;;;1.60;1.40;;;16.30;65.00;;;;;;5086899;28;20271;-71
2022/11/01 09:00:00;;;;;;;1.60;1.42;;;16.30;65.00;;;;;;5086807;28;20025;-70
2022/11/01 09:02:25;;;;;;;1.77;1.58;;;16.30;65.00;;;;;;5086759;28;20016;-68
2022/11/01 09:04:51;;;;;;;1.42;1.20;;;16.30;64.90;;;;;;5086729;28;20039;-70
2022/11/01 09:07:17;;;;;;;1.85;1.70;;;16.30;65.00;;;;;;5086681;28;20028;-70
2022/11/01 09:09:43;;;;;;;1.65;1.33;;;16.30;64.90;;;;;;5086632;28;20016;-70
2022/11/01 09:12:11;;;;;;;2.22;1.50;;;16.30;65.00;;;;;;5086567;28;20077;-70
2022/11/01 09:14:37;;;;;;;1.30;1.20;;;16.30;65.00;;;;;;5085309;28;20052;-68
2022/11/01 09:17:02;;;;;;;1.35;1.25;;;16.30;65.00;;;;;;5086468;28;20023;-68
2022/11/01 09:19:28;;;;;;;1.40;1.30;;;16.30;65.00;;;;;;5086468;28;20012;-68
2022/11/01 09:21:54;;;;;;;1.75;1.60;;;16.30;64.90;;;;;;5086219;28;20021;-68
2022/11/01 09:24:23;;;;;;;1.83;1.63;;;16.30;65.00;;;;;;5086398;28;20051;-68
2022/11/01 09:26:49;;;;;;;2.50;1.88;;;16.30;64.90;;;;;;5086300;28;20020;-68
2022/11/01 09:29:17;;;;;;;1.30;1.20;;;16.30;64.90;;;;;;5086298;28;20024;-68
2022/11/01 09:31:42;;;;;;;1.83;1.73;;;16.30;65.00;;;;;;5086240;28;20017;-68
2022/11/01 09:34:10;;;;;;;1.23;1.13;;;16.30;65.00;;;;;;5086072;28;20024;-68
2022/11/01 09:36:36;;;;;;;1.38;1.27;;;16.30;65.00;;;;;;5086196;28;20012;-70
2022/11/01 09:39:02;;;;;;;1.38;1.20;;;16.30;65.00;;;;;;5086105;28;20097;-71
2022/11/01 09:41:28;;;;;;;1.50;1.40;;;16.30;65.10;;;;;;5084875;28;20027;-70
2022/11/01 09:43:57;;;;;;;1.95;1.67;;;16.30;65.10;;;;;;5086067;28;20024;-71
2022/11/01 09:46:30;;;;;;;1.40;1.15;;;16.30;65.00;;;;;;5085996;28;20017;-70
2022/11/01 09:48:58;;;;;;;1.35;1.25;;;16.30;65.00;;;;;;5085960;28;20079;-70
2022/11/01 09:51:24;;;;;;;2.05;1.40;;;16.30;65.10;;;;;;5085886;28;20066;-71
2022/11/01 09:53:54;;;;;;;1.88;1.67;;;16.30;65.70;;;;;;5085332;28;20042;-71
2022/11/01 09:56:59;;;;;;;2.15;1.38;;;16.30;65.20;;;;;;5085846;28;20008;-71
2022/11/01 09:59:25;;;;;;;1.63;1.50;;;16.30;65.00;;;;;;5085777;28;20086;-71
2022/11/01 10:02:17;;;;;;;1.65;1.30;;;16.30;65.20;;;;;;5085665;28;20012;-69
2022/11/01 10:04:52;;;;;;;1.67;1.58;;;16.30;65.10;;;;;;5085684;28;20020;-70
2022/11/01 10:07:38;;;;;;;1.33;1.23;;;16.30;65.10;;;;;;5085571;28;20251;-70
2022/11/01 10:10:23;;;;;;;1.42;1.33;;;16.30;65.10;;;;;;5085533;28;20024;-68
2022/11/01 10:12:54;;;;;;;1.30;1.20;;;16.30;65.20;;;;;;5085396;28;20061;-70
2022/11/01 10:15:47;;;;;;;1.48;1.38;;;16.20;65.40;;;;;;5085417;28;20016;-71
2022/11/01 10:18:22;;;;;;;1.58;1.48;;;16.20;65.40;;;;;;5085398;28;20020;-71
2022/11/01 10:20:48;;;;;;;2.00;1.50;;;16.20;65.60;;;;;;5085308;28;20020;-70
2022/11/01 10:23:17;;;;;;;2.05;1.85;;;16.20;65.60;;;;;;5084979;28;20116;-71
2022/11/01 10:25:50;;;;;;;1.50;1.30;;;16.20;65.60;;;;;;5084090;28;20056;-70
2022/11/01 10:28:37;;;;;;;1.77;1.52;;;16.20;65.50;;;;;;5085171;28;20083;-68
2022/11/01 10:31:10;;;;;;;1.52;1.42;;;16.20;65.50;;;;;;5085190;28;20092;-71
2022/11/01 10:34:01;;;;;;;1.77;1.67;;;16.20;65.60;;;;;;5084980;28;20066;-70
2022/11/01 10:36:33;;;;;;;1.30;1.20;;;16.20;65.60;;;;;;5084611;28;20044;-71
2022/11/01 10:39:22;;;;;;;1.67;1.50;;;16.20;65.60;;;;;;5085009;28;20073;-71
2022/11/01 10:41:49;;;;;;;;;;;16.20;65.70;;;;;;5085355;28;20012;-69
2022/11/01 10:44:54;;;;;;;2.00;1.58;;;16.20;65.50;;;;;;5084781;28;19907;-70
2022/11/01 10:47:21;;;;;;;1.67;1.58;;;16.30;65.30;;;;;;5075496;28;20036;-70
2022/11/01 10:50:02;;;;;;;1.42;1.33;;;16.30;65.10;;;;;;5084739;28;20043;-69
2022/11/01 10:52:51;;;;;;;1.67;1.58;;;16.30;65.00;;;;;;5084701;28;20025;-68
2022/11/01 10:55:28;;;;;;;1.67;1.58;;;16.30;65.20;;;;;;5084207;28;20038;-69
2022/11/01 10:58:07;;;;;;;1.73;1.55;;;16.30;65.10;;;;;;5084608;28;20012;-69
2022/11/01 11:00:38;;;;;;;1.77;1.50;;;16.40;65.00;;;;;;5084568;28;20009;-68
2022/11/01 11:03:18;;;;;;;1.65;1.50;;;16.30;65.10;;;;;;5084506;28;20028;-68
2022/11/01 11:05:45;;;;;;;1.55;1.45;;;16.30;65.20;;;;;;5083691;28;20066;-68
2022/11/01 11:08:17;;;;;;;1.65;1.55;;;16.30;65.00;;;;;;5084387;28;20016;-69
2022/11/01 11:10:44;;;;;;;1.75;1.60;;;16.40;65.10;;;;;;5084346;28;20020;-68
2022/11/01 11:13:11;;;;;;;1.52;1.33;;;16.30;65.10;;;;;;5084240;28;20020;-68
2022/11/01 11:15:51;;;;;;;1.70;1.27;;;16.30;65.20;;;;;;5084246;28;20013;-68
2022/11/01 11:18:28;;;;;;;1.77;1.67;;;16.30;65.10;;;;;;5084188;28;20250;-68
2022/11/01 11:21:08;;;;;;;1.42;1.33;;;16.30;65.10;;;;;;5084183;28;20009;-68
2022/11/01 11:23:43;;;;;;;1.42;1.33;;;16.30;65.20;;;;;;5083964;28;20328;-68
2022/11/01 11:26:15;;;;;;;1.75;1.65;;;16.30;65.20;;;;;;5084063;28;20013;-68
2022/11/01 11:28:51;;;;;;;1.38;1.27;;;16.30;65.20;;;;;;5084076;28;20017;-68
2022/11/01 11:31:27;;;;;;;1.50;1.40;;;16.30;65.30;;;;;;5084031;28;20182;-70
2022/11/01 11:34:18;;;;;;;1.30;1.20;;;16.30;65.30;;;;;;5083898;28;20016;-70
2022/11/01 11:36:48;;;;;;;1.45;1.35;;;16.30;65.30;;;;;;5083486;28;20024;-70
2022/11/01 11:39:29;;;;;;;1.60;1.48;;;16.30;65.30;;;;;;5083880;28;20331;-71
2022/11/01 11:42:17;;;;;;;1.38;1.27;;;16.30;65.20;;;;;;5083838;28;20016;-70
2022/11/01 11:44:47;;;;;;;1.67;1.50;;;16.30;65.20;;;;;;5083850;28;20205;-70
2022/11/01 11:47:24;;;;;;;2.20;1.33;;;16.30;65.10;;;;;;5083756;28;20020;-70
2022/11/01 11:49:52;;;;;;;1.70;1.60;;;16.30;65.10;;;;;;5083744;28;20044;-71
2022/11/01 11:52:30;;;;;;;1.42;1.20;;;16.30;65.10;;;;;;5083706;28;20016;-70
2022/11/01 11:54:56;;;;;;;1.40;1.30;;;16.30;65.00;;;;;;5083690;28;20093;-70
2022/11/01 11:57:25;;;;;;;1.42;1.33;;;16.40;65.70;;;;;;5083618;28;20023;-70
2022/11/01 11:59:52;;;;;;;;;;;16.30;65.10;;;;;;5084049;28;20388;-70
2022/11/01 12:02:20;;;;;;;1.52;1.20;;;16.30;65.30;;;;;;5083604;28;19904;-70
2022/11/01 12:04:51;;;;;;;1.52;1.20;;;16.20;65.50;;;;;;5083557;28;20043;-71
2022/11/01 12:07:30;;;;;;;1.90;1.70;;;16.20;65.30;;;;;;5083558;28;20032;-71
2022/11/01 12:10:03;;;;;;;1.20;1.08;;;16.30;65.20;;;;;;5083506;28;20024;-70
2022/11/01 12:12:32;;;;;;;2.10;1.60;;;16.30;65.20;;;;;;5083509;28;20020;-70
2022/11/01 12:15:00;;;;;;;2.00;1.40;;;16.30;65.10;;;;;;5083438;28;20025;-70
2022/11/01 12:17:44;;;;;;;1.40;1.30;;;16.40;65.10;;;;;;5087642;28;20040;-70
2022/11/01 12:20:24;;;;;;;1.33;1.23;;;16.30;64.90;;;;;;5090142;28;20368;-70
2022/11/01 12:23:21;;;;;;;1.63;1.45;;;16.40;65.00;;;;;;5089807;28;20060;-68
2022/11/01 12:25:49;;;;;;;2.13;1.67;;;16.40;65.00;;;;;;5090073;28;20012;-68
2022/11/01 12:28:30;;;;;;;2.05;1.70;;;16.40;64.90;;;;;;5090031;28;20024;-70
2022/11/01 12:31:02;;;;;;;1.60;1.50;;;16.40;64.90;;;;;;5090015;28;20012;-68
2022/11/01 12:33:37;;;;;;;1.52;1.42;;;16.40;65.00;;;;;;5089920;28;20323;-71
2022/11/01 12:36:03;;;;;;;1.38;1.27;;;16.40;65.00;;;;;;5089985;28;20208;-71
2022/11/01 12:38:40;;;;;;;1.88;1.52;;;16.30;64.90;;;;;;5089917;28;20334;-71
2022/11/01 12:41:20;;;;;;;1.77;1.50;;;16.40;65.00;;;;;;5089947;28;20021;-68
2022/11/01 12:44:27;;;;;;;1.63;1.52;;;16.40;65.10;;;;;;5088760;28;20016;-71
2022/11/01 12:47:13;;;;;;;1.38;1.25;;;16.30;65.00;;;;;;5076427;28;20063;-68
2022/11/01 12:50:06;;;;;;;1.40;1.30;;;16.40;65.00;;;;;;5089887;28;20020;-70
2022/11/01 12:52:54;;;;;;;2.53;1.63;;;16.40;65.00;;;;;;5089786;28;20023;-70
2022/11/01 12:55:39;;;;;;;1.63;1.30;;;16.30;65.00;;;;;;5089878;28;20287;-70
2022/11/01 12:58:10;;;;;;;1.55;1.33;;;16.30;65.10;;;;;;5089797;28;20088;-70
2022/11/01 13:01:08;;;;;;;1.77;1.60;;;16.40;65.10;;;;;;5089759;28;20330;-70
2022/11/01 13:03:59;;;;;;;1.50;1.40;;;16.40;65.00;;;;;;5089696;28;20043;-70
2022/11/01 13:06:43;;;;;;;1.40;1.20;;;16.30;65.00;;;;;;5088552;28;20264;-71
2022/11/01 13:09:33;;;;;;;2.15;1.38;;;16.30;65.00;;;;;;5089682;28;20085;-71
2022/11/01 13:12:16;;;;;;;1.83;1.50;;;16.30;65.10;;;;;;5089636;28;20024;-71
2022/11/01 13:15:43;;;;;;;1.77;1.55;;;16.30;65.10;;;;;;5089544;28;20027;-70